createdAt,value
2022-11-28T07:04:18.551Z,392
2022-11-28T07:05:17.295Z,420
2022-11-28T07:06:17.381Z,452
2022-11-28T07:07:23.107Z,476
2022-11-28T07:08:17.165Z,500
2022-11-28T07:09:17.665Z,540
2022-11-28T07:10:17.320Z,596
2022-11-28T07:11:17.324Z,668
2022-11-28T07:12:17.631Z,748
2022-11-28T07:13:17.261Z,820
2022-11-28T07:14:17.160Z,880
2022-11-28T07:15:17.728Z,928
2022-11-28T07:16:17.368Z,964
2022-11-28T07:17:17.192Z,1004
2022-11-28T07:18:17.564Z,1032
2022-11-28T07:19:17.319Z,1048
2022-11-28T07:20:19.305Z,1056
2022-11-28T07:21:16.961Z,1052
2022-11-28T07:22:16.890Z,1056
2022-11-28T07:23:17.619Z,1060
2022-11-28T07:24:18.613Z,1076
2022-11-28T07:25:16.962Z,1088
2022-11-28T07:26:17.732Z,1104
2022-11-28T07:27:17.338Z,1116
2022-11-28T07:28:23.202Z,1128
2022-11-28T07:29:17.522Z,1132
2022-11-28T07:30:17.005Z,1140
2022-11-28T07:31:17.657Z,1152
2022-11-28T07:32:17.441Z,1160
2022-11-28T07:33:18.599Z,1168
2022-11-28T07:34:17.551Z,1172
2022-11-28T07:35:17.947Z,1176
2022-11-28T07:36:18.797Z,1180
2022-11-28T07:37:17.589Z,1168
2022-11-28T07:38:17.102Z,1156
2022-11-28T07:39:49.359Z,1148
2022-11-28T07:40:17.521Z,1148
2022-11-28T07:41:18.547Z,1152
2022-11-28T07:42:17.258Z,1164
2022-11-28T07:43:17.232Z,1180
2022-11-28T07:44:17.257Z,1192
2022-11-28T07:45:17.505Z,1208
2022-11-28T07:46:17.299Z,1224
2022-11-28T07:47:17.195Z,1248
2022-11-28T07:48:16.944Z,1292
2022-11-28T07:49:17.509Z,1356
2022-11-28T07:50:17.713Z,1420
2022-11-28T07:51:17.867Z,1492
2022-11-28T07:52:17.917Z,1580
2022-11-28T07:53:16.963Z,1668
2022-11-28T07:54:17.235Z,1752
2022-11-28T07:55:16.985Z,1824
2022-11-28T07:56:17.269Z,1900
2022-11-28T07:57:19.603Z,1968
2022-11-28T07:58:17.047Z,2020
2022-11-28T07:59:17.270Z,2068
2022-11-28T08:00:17.515Z,2104
2022-11-28T08:01:17.483Z,2144
2022-11-28T08:02:18.720Z,2180
2022-11-28T08:03:17.175Z,2200
2022-11-28T08:04:17.351Z,2224
2022-11-28T08:05:17.562Z,2244
2022-11-28T08:06:17.786Z,2248
2022-11-28T08:07:17.557Z,2248
2022-11-28T08:08:18.652Z,2256
2022-11-28T08:09:17.512Z,2260
2022-11-28T08:10:18.304Z,2260
2022-11-28T08:11:17.592Z,2268
2022-11-28T08:12:17.121Z,2268
2022-11-28T08:13:17.127Z,2264
2022-11-28T08:14:17.099Z,2280
2022-11-28T08:15:17.237Z,2308
2022-11-28T08:16:17.744Z,2348
2022-11-28T08:17:17.469Z,2376
2022-11-28T08:18:17.892Z,2404
2022-11-28T08:19:20.466Z,2448
2022-11-28T08:20:18.332Z,2492
2022-11-28T08:21:17.143Z,2552
2022-11-28T08:22:17.796Z,2632
2022-11-28T08:23:17.153Z,2704
2022-11-28T08:24:18.403Z,2760
2022-11-28T08:25:17.159Z,2792
2022-11-28T08:26:17.462Z,2812
2022-11-28T08:27:17.526Z,2812
